Time;durP1;ratioP1;P1;durP2;ratioP2;P2;SDS_P1;SDS_P2;PMS_P1;PMS_P2;Temp;Humidity;BMP_temperature;BMP_pressure;BME280_temperature;BME280_humidity;BME280_pressure;Samples;Min_cycle;Max_cycle;Signal;HPM_P1;HPM_P2
2024/01/16 00:00:54;;;;;;;;;;;1.00;99.90;;;;;;6663850;88;21469;-76
2024/01/16 00:10:54;;;;;;;;;;;1.00;99.90;;;;;;6655071;88;20140;-75
2024/01/16 00:20:55;;;;;;;;;;;1.00;99.90;;;;;;6656403;88;20062;-74
2024/01/16 00:30:55;;;;;;;;;;;1.00;99.90;;;;;;6653519;88;20531;-74
2024/01/16 00:40:56;;;;;;;;;;;1.10;99.90;;;;;;6660403;88;20062;-74
2024/01/16 00:50:56;;;;;;;;;;;1.10;99.90;;;;;;6653996;88;21163;-75
2024/01/16 01:00:57;;;;;;;;;;;1.10;99.90;;;;;;6656270;88;20084;-74
2024/01/16 01:10:57;;;;;;;;;;;1.20;99.90;;;;;;6663798;88;20175;-75
2024/01/16 01:20:58;;;;;;;;;;;1.20;99.90;;;;;;6658074;88;20066;-75
2024/01/16 01:30:58;;;;;;;;;;;1.20;99.90;;;;;;6658782;88;20062;-75
2024/01/16 01:40:59;;;;;;;;;;;1.20;99.90;;;;;;6657356;88;20065;-74
2024/01/16 01:50:59;;;;;;;;;;;1.20;99.90;;;;;;6661626;88;20061;-74
2024/01/16 02:01:00;;;;;;;;;;;1.20;99.90;;;;;;6662044;88;20606;-73
2024/01/16 02:11:01;;;;;;;;;;;1.20;99.90;;;;;;6668347;88;20128;-74
2024/01/16 02:21:05;;;;;;;;;;;1.20;99.90;;;;;;6668124;88;20115;-75
2024/01/16 02:31:07;;;;;;;;;;;0.90;99.90;;;;;;6674563;88;20144;-75
2024/01/16 02:41:07;;;;;;;;;;;0.70;99.90;;;;;;6663706;88;20087;-75
2024/01/16 02:51:08;;;;;;;;;;;0.60;99.90;;;;;;6661067;88;20066;-74
2024/01/16 03:01:08;;;;;;;;;;;0.70;99.90;;;;;;6653960;88;20074;-74
2024/01/16 03:11:09;;;;;;;;;;;0.80;99.90;;;;;;6667618;88;20083;-74
2024/01/16 03:21:10;;;;;;;;;;;0.80;99.90;;;;;;6654543;88;20053;-75
2024/01/16 03:31:12;;;;;;;;;;;0.80;99.90;;;;;;6661124;88;20051;-75
2024/01/16 03:41:12;;;;;;;;;;;0.80;99.90;;;;;;6650634;88;20188;-75
2024/01/16 03:51:15;;;;;;;;;;;0.90;99.90;;;;;;6656103;88;20095;-75
2024/01/16 04:01:16;;;;;;;;;;;0.90;99.90;;;;;;6654547;88;20061;-75
2024/01/16 04:11:16;;;;;;;;;;;0.80;99.90;;;;;;6651595;88;20876;-74
2024/01/16 04:21:17;;;;;;;;;;;0.60;99.90;;;;;;6659990;88;20055;-75
2024/01/16 04:31:19;;;;;;;;;;;0.50;99.90;;;;;;6665971;88;20587;-74
2024/01/16 04:41:19;;;;;;;;;;;0.40;99.90;;;;;;6649285;88;20617;-74
2024/01/16 04:51:20;;;;;;;;;;;0.50;99.90;;;;;;6658245;88;20180;-76
2024/01/16 05:01:20;;;;;;;;;;;0.50;99.90;;;;;;6657117;88;20086;-75
2024/01/16 05:11:21;;;;;;;;;;;0.50;99.90;;;;;;6656661;88;20089;-74
2024/01/16 05:21:21;;;;;;;;;;;0.50;99.90;;;;;;6665182;88;20059;-75
2024/01/16 05:31:22;;;;;;;;;;;0.50;99.90;;;;;;6654697;88;20332;-75
2024/01/16 05:41:42;;;;;;;;;;;0.50;99.90;;;;;;6706426;78;20062;-75
2024/01/16 05:51:43;;;;;;;;;;;0.50;99.90;;;;;;6729913;88;20098;-76
2024/01/16 06:01:43;;;;;;;;;;;0.50;99.90;;;;;;6730192;88;20527;-77
2024/01/16 06:11:44;;;;;;;;;;;0.60;99.90;;;;;;6729155;88;20082;-78
2024/01/16 06:21:44;;;;;;;;;;;0.60;99.90;;;;;;6735848;88;22134;-79
2024/01/16 06:31:45;;;;;;;;;;;0.60;99.90;;;;;;6730518;88;20211;-78
2024/01/16 06:41:45;;;;;;;;;;;0.70;99.90;;;;;;6727662;88;20061;-78
2024/01/16 06:51:46;;;;;;;;;;;0.60;99.90;;;;;;6736448;88;20054;-77
2024/01/16 07:01:46;;;;;;;;;;;0.70;99.90;;;;;;6731067;88;20480;-78
2024/01/16 07:11:47;;;;;;;;;;;0.70;99.90;;;;;;6726561;88;20071;-77
2024/01/16 07:21:47;;;;;;;;;;;0.60;99.90;;;;;;6730818;88;20130;-76
2024/01/16 07:31:48;;;;;;;;;;;0.50;99.90;;;;;;6718651;88;20555;-76
2024/01/16 07:41:48;;;;;;;;;;;0.50;99.90;;;;;;6721133;88;20055;-76
2024/01/16 07:51:49;;;;;;;;;;;0.40;99.90;;;;;;6709943;88;20676;-77
2024/01/16 08:01:49;;;;;;;;;;;0.20;99.90;;;;;;6711255;88;20047;-76
2024/01/16 08:11:49;;;;;;;;;;;0.10;99.90;;;;;;6710781;88;20100;-76
2024/01/16 08:21:50;;;;;;;;;;;0.10;99.90;;;;;;6710572;88;20083;-78
2024/01/16 08:31:53;;;;;;;;;;;0.20;99.90;;;;;;6708524;88;20626;-76
2024/01/16 08:41:54;;;;;;;;;;;0.20;99.90;;;;;;6710297;88;20085;-76
2024/01/16 08:51:54;;;;;;;;;;;0.10;99.90;;;;;;6741046;88;20536;-77
2024/01/16 09:01:55;;;;;;;;;;;0.40;99.90;;;;;;6750448;87;20184;-77
2024/01/16 09:11:57;;;;;;;;;;;0.90;99.90;;;;;;6744336;88;20096;-77
2024/01/16 09:21:58;;;;;;;;;;;1.10;99.90;;;;;;6747500;88;20057;-77
2024/01/16 09:31:58;;;;;;;;;;;1.50;99.90;;;;;;6742127;88;20066;-77
2024/01/16 09:42:02;;;;;;;;;;;1.70;99.90;;;;;;6743780;88;20520;-77
2024/01/16 09:52:03;;;;;;;;;;;2.10;99.90;;;;;;6742549;87;20051;-77
2024/01/16 10:02:06;;;;;;;;;;;1.90;99.90;;;;;;6752147;88;20120;-75
2024/01/16 10:12:07;;;;;;;;;;;2.60;99.90;;;;;;6748070;88;20507;-76
2024/01/16 10:22:08;;;;;;;;;;;3.00;99.90;;;;;;6744999;88;20070;-76
2024/01/16 10:32:09;;;;;;;;;;;2.70;99.90;;;;;;6747476;88;20116;-75
2024/01/16 10:42:09;;;;;;;;;;;2.30;99.90;;;;;;6749103;88;20214;-75
2024/01/16 10:52:11;;;;;;;;;;;2.10;99.90;;;;;;6752958;87;20569;-76
2024/01/16 11:02:12;;;;;;;;;;;2.60;99.90;;;;;;6743758;87;20102;-76
2024/01/16 11:12:16;;;;;;;;;;;2.90;99.90;;;;;;6745440;88;20190;-75
2024/01/16 11:22:18;;;;;;;;;;;2.70;99.90;;;;;;6747270;88;20546;-75
2024/01/16 11:32:35;;;;;;;;;;;3.80;99.90;;;;;;6747437;88;20053;-76
2024/01/16 11:42:42;;;;;;;;;;;4.40;99.90;;;;;;6741043;88;20495;-76
2024/01/16 11:52:43;;;;;;;;;;;4.70;99.90;;;;;;6709790;88;20048;-76
2024/01/16 12:02:44;;;;;;;;;;;5.70;99.90;;;;;;6709929;88;20149;-77
2024/01/16 12:12:45;;;;;;;;;;;5.90;99.90;;;;;;6710497;88;20513;-76
2024/01/16 12:22:52;;;;;;;;;;;4.90;99.90;;;;;;6713459;88;20104;-75
2024/01/16 12:32:53;;;;;;;;;;;5.30;99.90;;;;;;6713209;88;20095;-76
2024/01/16 12:42:53;;;;;;;;;;;4.90;99.90;;;;;;6717715;88;20070;-76
2024/01/16 12:53:01;;;;;;;;;;;3.80;99.90;;;;;;6743323;88;20215;-76
2024/01/16 13:03:01;;;;;;;;;;;5.00;99.90;;;;;;6745445;88;20192;-75
2024/01/16 13:13:12;;;;;;;;;;;6.40;99.90;;;;;;6746913;87;20125;-76
2024/01/16 13:23:16;;;;;;;;;;;6.90;99.90;;;;;;6747101;88;20629;-75
2024/01/16 13:33:16;;;;;;;;;;;7.50;99.70;;;;;;6745229;88;20558;-75
2024/01/16 13:43:17;;;;;;;;;;;7.70;98.70;;;;;;6745428;87;20360;-76
2024/01/16 13:53:18;;;;;;;;;;;7.30;98.40;;;;;;6745513;88;20054;-76
2024/01/16 14:03:19;;;;;;;;;;;7.30;98.20;;;;;;6742656;88;20074;-76
2024/01/16 14:13:20;;;;;;;;;;;6.60;98.80;;;;;;6742703;88;20054;-76
2024/01/16 14:23:20;;;;;;;;;;;7.10;98.50;;;;;;6743832;87;20136;-76
2024/01/16 14:33:21;;;;;;;;;;;6.10;98.90;;;;;;6748222;88;20533;-76
2024/01/16 14:43:22;;;;;;;;;;;5.40;99.40;;;;;;6741303;88;20154;-75
2024/01/16 14:53:22;;;;;;;;;;;4.90;99.70;;;;;;6732962;88;20495;-75
2024/01/16 15:03:23;;;;;;;;;;;4.60;99.90;;;;;;6728917;88;20075;-76
2024/01/16 15:13:24;;;;;;;;;;;4.20;99.90;;;;;;6728346;88;20066;-75
2024/01/16 15:23:25;;;;;;;;;;;3.50;99.90;;;;;;6727727;88;20102;-76
2024/01/16 15:33:27;;;;;;;;;;;2.70;99.90;;;;;;6727141;88;20565;-75
2024/01/16 15:43:27;;;;;;;;;;;2.20;99.90;;;;;;6730276;88;20566;-75
2024/01/16 15:53:27;;;;;;;;;;;1.80;99.90;;;;;;6745167;88;20071;-76
2024/01/16 16:03:28;;;;;;;;;;;1.40;99.90;;;;;;6747188;88;20078;-76
2024/01/16 16:13:31;;;;;;;;;;;1.20;99.90;;;;;;6743580;88;20091;-75
2024/01/16 16:23:31;;;;;;;;;;;0.90;99.90;;;;;;6746383;88;20567;-76
2024/01/16 16:33:31;;;;;;;;;;;0.80;99.90;;;;;;6742229;88;20076;-76
2024/01/16 16:43:32;;;;;;;;;;;0.50;99.90;;;;;;6741627;88;20698;-75
2024/01/16 16:53:32;;;;;;;;;;;0.30;99.90;;;;;;6740606;88;20085;-76
2024/01/16 17:03:34;;;;;;;;;;;0.20;99.90;;;;;;6742171;88;20052;-76
2024/01/16 17:13:36;;;;;;;;;;;0.20;99.90;;;;;;6739325;88;20079;-77
2024/01/16 17:23:36;;;;;;;;;;;0.00;99.90;;;;;;6743802;88;20054;-76
2024/01/16 17:33:37;;;;;;;;;;;-0.10;99.90;;;;;;6744302;88;20046;-76
2024/01/16 17:43:38;;;;;;;;;;;-0.20;99.90;;;;;;6746673;88;20138;-76
2024/01/16 17:53:39;;;;;;;;;;;-0.10;99.90;;;;;;6743871;87;20592;-76
2024/01/16 18:03:40;;;;;;;;;;;-0.20;99.90;;;;;;6742880;88;20049;-76
2024/01/16 18:13:45;;;;;;;;;;;-0.50;99.90;;;;;;6746472;87;20080;-76
2024/01/16 18:23:47;;;;;;;;;;;-0.50;99.90;;;;;;6742692;88;20079;-76
2024/01/16 18:33:49;;;;;;;;;;;-0.60;99.90;;;;;;6744973;88;20170;-76
2024/01/16 18:43:52;;;;;;;;;;;-1.00;99.90;;;;;;6749228;88;20065;-77
2024/01/16 18:53:52;;;;;;;;;;;-1.10;99.90;;;;;;6748501;88;20119;-77
2024/01/16 19:03:53;;;;;;;;;;;-1.20;99.90;;;;;;6749005;88;20510;-76
2024/01/16 19:13:53;;;;;;;;;;;-1.30;99.90;;;;;;6743176;88;20078;-77
2024/01/16 19:23:53;;;;;;;;;;;-1.40;99.90;;;;;;6751593;88;20531;-76
2024/01/16 19:33:54;;;;;;;;;;;-1.50;99.90;;;;;;6745094;88;20072;-77
2024/01/16 19:43:55;;;;;;;;;;;-1.40;99.90;;;;;;6749282;88;20092;-77
2024/01/16 19:53:55;;;;;;;;;;;-1.40;99.90;;;;;;6743342;88;20108;-76
2024/01/16 20:03:57;;;;;;;;;;;-1.50;99.90;;;;;;6740159;88;20088;-77
2024/01/16 20:13:59;;;;;;;;;;;-1.60;99.90;;;;;;6743839;88;20104;-76
2024/01/16 20:24:01;;;;;;;;;;;-1.70;99.90;;;;;;6746694;88;20177;-76
2024/01/16 20:34:01;;;;;;;;;;;-1.90;99.90;;;;;;6751062;88;20541;-77
2024/01/16 20:44:02;;;;;;;;;;;-1.80;99.90;;;;;;6748253;88;20065;-78
2024/01/16 20:54:04;;;;;;;;;;;-1.80;99.90;;;;;;6746271;87;20079;-77
2024/01/16 21:04:08;;;;;;;;;;;-1.80;99.90;;;;;;6741711;88;20083;-77
2024/01/16 21:14:09;;;;;;;;;;;-2.00;99.90;;;;;;6753478;87;20086;-76
2024/01/16 21:24:10;;;;;;;;;;;-2.00;99.90;;;;;;6740278;88;20056;-77
2024/01/16 21:34:11;;;;;;;;;;;-2.20;99.90;;;;;;6742366;88;20050;-77
2024/01/16 21:44:12;;;;;;;;;;;-2.20;99.90;;;;;;6738261;88;20053;-77
2024/01/16 21:54:12;;;;;;;;;;;-2.30;99.90;;;;;;6751551;88;20525;-77
2024/01/16 22:04:13;;;;;;;;;;;-2.50;99.90;;;;;;6746048;88;20088;-78
2024/01/16 22:14:13;;;;;;;;;;;-2.60;99.90;;;;;;6748767;88;20137;-78
2024/01/16 22:24:14;;;;;;;;;;;-2.70;99.90;;;;;;6751347;88;20075;-79
2024/01/16 22:34:14;;;;;;;;;;;-2.60;99.90;;;;;;6752382;87;20512;-78
2024/01/16 22:44:15;;;;;;;;;;;-2.70;99.90;;;;;;6744466;88;20294;-78
2024/01/16 22:54:15;;;;;;;;;;;-2.80;99.90;;;;;;6744965;88;20081;-79
2024/01/16 23:04:16;;;;;;;;;;;-2.80;99.90;;;;;;6751118;88;20100;-78
2024/01/16 23:14:17;;;;;;;;;;;-2.80;99.90;;;;;;6755985;88;20492;-79
2024/01/16 23:24:18;;;;;;;;;;;-2.80;99.90;;;;;;6755962;87;20097;-77
2024/01/16 23:34:19;;;;;;;;;;;-2.80;99.90;;;;;;6749381;87;20571;-77
2024/01/16 23:44:19;;;;;;;;;;;-2.80;99.90;;;;;;6750812;88;20053;-76
2024/01/16 23:54:20;;;;;;;;;;;-2.80;99.90;;;;;;6731295;88;20484;-77
